VOE70QP LEMD-LFRS
Flight info
| Callsign | VOE70QP |
|---|---|
| Flight time | N/A |
| Altitude | 32000 |
| Route | RBO N867 DGO DCT CEGAM DCT BAGAS DCT SSN DCT LUSEM DCT LULUT DCT CNA DCT MANAK |
| Aircraft | A320/M-SDFGHIJ1RWY/LB1 |
Departure
| Time | 2026-05-07 15:29 |
|---|---|
| Airport | Adolfo Suárez Madrid–Barajas Airport (LEMD) |
Arrival
| Time | N/A |
|---|---|
| Airport | Nantes Atlantique Airport (LFRS) |
| Time | Latitude | Longitude | Altitude | Speed | Heading |
|---|---|---|---|---|---|
| 2026-05-07 15:13 | 40.46948 | -3.56811 | 1975 ft | 0 kts | 240° |
| 2026-05-07 15:18 | 40.46952 | -3.56803 | 1979 ft | 0 kts | 240° |
| 2026-05-07 15:18 | 40.46959 | -3.56786 | 1980 ft | 2 kts | 240° |
| 2026-05-07 15:18 | 40.46967 | -3.56768 | 1975 ft | 2 kts | 240° |
| 2026-05-07 15:19 | 40.46975 | -3.56749 | 1980 ft | 2 kts | 240° |
| 2026-05-07 15:19 | 40.46981 | -3.56730 | 1978 ft | 2 kts | 273° |
| 2026-05-07 15:19 | 40.46980 | -3.56709 | 1980 ft | 2 kts | 301° |
| 2026-05-07 15:19 | 40.46972 | -3.56690 | 1978 ft | 2 kts | 320° |
| 2026-05-07 15:21 | 40.47019 | -3.56735 | 1977 ft | 22 kts | 324° |
| 2026-05-07 15:21 | 40.47109 | -3.56840 | 1985 ft | 17 kts | 315° |
| 2026-05-07 15:22 | 40.47213 | -3.56923 | 1988 ft | 18 kts | 347° |
| 2026-05-07 15:22 | 40.47330 | -3.56854 | 1989 ft | 21 kts | 52° |
| 2026-05-07 15:22 | 40.47436 | -3.56804 | 1990 ft | 18 kts | 328° |
| 2026-05-07 15:22 | 40.47562 | -3.56930 | 1993 ft | 28 kts | 322° |
| 2026-05-07 15:23 | 40.47716 | -3.57087 | 1997 ft | 26 kts | 323° |
| 2026-05-07 15:23 | 40.47860 | -3.57232 | 2003 ft | 26 kts | 323° |
| 2026-05-07 15:23 | 40.48007 | -3.57382 | 2003 ft | 28 kts | 322° |
| 2026-05-07 15:23 | 40.48167 | -3.57542 | 2000 ft | 30 kts | 322° |
| 2026-05-07 15:24 | 40.48335 | -3.57715 | 1994 ft | 31 kts | 322° |
| 2026-05-07 15:24 | 40.48519 | -3.57864 | 1995 ft | 30 kts | 332° |
| 2026-05-07 15:24 | 40.48676 | -3.57926 | 1999 ft | 22 kts | 358° |
| 2026-05-07 15:24 | 40.48765 | -3.57874 | 1997 ft | 9 kts | 86° |
| 2026-05-07 15:25 | 40.48764 | -3.57694 | 1992 ft | 29 kts | 89° |
| 2026-05-07 15:25 | 40.48764 | -3.57433 | 1988 ft | 27 kts | 90° |
| 2026-05-07 15:25 | 40.48764 | -3.57165 | 1983 ft | 32 kts | 90° |
| 2026-05-07 15:25 | 40.48766 | -3.56891 | 1979 ft | 23 kts | 89° |
| 2026-05-07 15:26 | 40.48768 | -3.56651 | 1977 ft | 29 kts | 89° |
| 2026-05-07 15:26 | 40.48769 | -3.56403 | 1966 ft | 23 kts | 89° |
| 2026-05-07 15:26 | 40.48770 | -3.56213 | 1961 ft | 16 kts | 89° |
| 2026-05-07 15:26 | 40.48853 | -3.56140 | 1959 ft | 17 kts | 358° |
| 2026-05-07 15:27 | 40.48985 | -3.56139 | 1959 ft | 21 kts | 0° |
| 2026-05-07 15:27 | 40.49149 | -3.56140 | 1959 ft | 26 kts | 360° |
| 2026-05-07 15:27 | 40.49338 | -3.56142 | 1959 ft | 28 kts | 359° |
| 2026-05-07 15:27 | 40.49411 | -3.56040 | 1960 ft | 17 kts | 91° |
| 2026-05-07 15:28 | 40.49455 | -3.55935 | 1964 ft | 12 kts | 52° |
| 2026-05-07 15:28 | 40.49506 | -3.55847 | 1963 ft | 11 kts | 55° |
| 2026-05-07 15:28 | 40.49487 | -3.55786 | 1966 ft | 6 kts | 149° |
| 2026-05-07 15:28 | 40.49408 | -3.55710 | 1962 ft | 31 kts | 142° |
| 2026-05-07 15:29 | 40.48982 | -3.55281 | 1953 ft | 122 kts | 142° |
| 2026-05-07 15:29 | 40.48114 | -3.54396 | 1979 ft | 187 kts | 144° |
| 2026-05-07 15:29 | 40.47051 | -3.53305 | 2729 ft | 200 kts | 141° |
| 2026-05-07 15:29 | 40.45929 | -3.52194 | 3780 ft | 202 kts | 142° |
| 2026-05-07 15:30 | 40.44757 | -3.51034 | 4533 ft | 219 kts | 142° |
| 2026-05-07 15:30 | 40.43572 | -3.49806 | 5609 ft | 221 kts | 138° |
| 2026-05-07 15:30 | 40.42654 | -3.48142 | 6641 ft | 234 kts | 118° |
| 2026-05-07 15:30 | 40.41928 | -3.46178 | 7640 ft | 243 kts | 118° |
| 2026-05-07 15:31 | 40.41192 | -3.44153 | 8745 ft | 249 kts | 118° |
| 2026-05-07 15:31 | 40.40444 | -3.42076 | 9881 ft | 254 kts | 118° |
| 2026-05-07 15:31 | 40.39681 | -3.39954 | 10950 ft | 259 kts | 115° |
| 2026-05-07 15:31 | 40.39278 | -3.37615 | 12010 ft | 269 kts | 91° |
| 2026-05-07 15:32 | 40.39642 | -3.35167 | 12691 ft | 280 kts | 66° |
| 2026-05-07 15:32 | 40.40845 | -3.33106 | 12920 ft | 296 kts | 38° |
| 2026-05-07 15:32 | 40.42713 | -3.31945 | 12978 ft | 300 kts | 10° |
| 2026-05-07 15:32 | 40.44767 | -3.31573 | 13127 ft | 305 kts | 6° |
| 2026-05-07 15:33 | 40.46855 | -3.31239 | 13776 ft | 306 kts | 6° |
| 2026-05-07 15:33 | 40.48977 | -3.30893 | 14337 ft | 309 kts | 6° |
| 2026-05-07 15:33 | 40.51130 | -3.30533 | 15309 ft | 311 kts | 6° |
| 2026-05-07 15:33 | 40.53266 | -3.30170 | 16302 ft | 315 kts | 6° |
| 2026-05-07 15:34 | 40.55451 | -3.29796 | 17290 ft | 319 kts | 6° |
| 2026-05-07 15:34 | 40.57669 | -3.29415 | 18268 ft | 323 kts | 6° |
| 2026-05-07 15:34 | 40.59921 | -3.29029 | 19105 ft | 328 kts | 6° |
| 2026-05-07 15:34 | 40.62204 | -3.28638 | 19936 ft | 333 kts | 6° |
| 2026-05-07 15:35 | 40.64570 | -3.28235 | 20312 ft | 354 kts | 6° |
| 2026-05-07 15:35 | 40.67097 | -3.27806 | 20575 ft | 376 kts | 6° |
| 2026-05-07 15:35 | 40.69734 | -3.27358 | 21154 ft | 386 kts | 6° |
| 2026-05-07 15:35 | 40.72424 | -3.26899 | 21889 ft | 392 kts | 6° |
| 2026-05-07 15:36 | 40.75149 | -3.26432 | 22661 ft | 397 kts | 6° |
| 2026-05-07 15:36 | 40.77871 | -3.25961 | 23431 ft | 402 kts | 6° |
| 2026-05-07 15:36 | 40.80668 | -3.25477 | 24103 ft | 407 kts | 6° |
| 2026-05-07 15:36 | 40.83495 | -3.24986 | 24787 ft | 411 kts | 6° |
| 2026-05-07 15:37 | 40.86343 | -3.24486 | 25446 ft | 414 kts | 7° |
| 2026-05-07 15:37 | 40.89213 | -3.23913 | 26081 ft | 419 kts | 8° |
| 2026-05-07 15:37 | 40.92106 | -3.23267 | 26680 ft | 423 kts | 9° |
| 2026-05-07 15:37 | 40.95021 | -3.22580 | 27286 ft | 426 kts | 9° |
| 2026-05-07 15:38 | 40.97915 | -3.21891 | 27869 ft | 430 kts | 9° |
| 2026-05-07 15:38 | 41.00877 | -3.21197 | 28437 ft | 433 kts | 8° |
| 2026-05-07 15:38 | 41.03871 | -3.20511 | 29010 ft | 437 kts | 8° |
| 2026-05-07 15:38 | 41.06884 | -3.19830 | 29565 ft | 441 kts | 8° |
| 2026-05-07 15:39 | 41.09916 | -3.19152 | 30074 ft | 445 kts | 8° |
| 2026-05-07 15:39 | 41.13000 | -3.18460 | 30456 ft | 450 kts | 8° |
| 2026-05-07 15:39 | 41.16098 | -3.17767 | 30909 ft | 452 kts | 7° |
| 2026-05-07 15:39 | 41.19167 | -3.17080 | 31371 ft | 454 kts | 7° |
| 2026-05-07 15:40 | 41.22297 | -3.16376 | 31850 ft | 455 kts | 7° |
| 2026-05-07 15:40 | 41.25409 | -3.15672 | 32500 ft | 452 kts | 6° |
| 2026-05-07 15:40 | 41.28507 | -3.14971 | 33156 ft | 449 kts | 6° |
| 2026-05-07 15:40 | 41.31512 | -3.14289 | 33801 ft | 447 kts | 6° |
| 2026-05-07 15:41 | 41.34570 | -3.13596 | 34344 ft | 445 kts | 6° |
| 2026-05-07 15:41 | 41.37625 | -3.12902 | 34838 ft | 445 kts | 6° |
| 2026-05-07 15:41 | 41.40644 | -3.12215 | 35276 ft | 445 kts | 6° |
| 2026-05-07 15:41 | 41.43703 | -3.11523 | 35704 ft | 446 kts | 6° |
| 2026-05-07 15:42 | 41.46768 | -3.10831 | 35883 ft | 447 kts | 6° |
| 2026-05-07 15:42 | 41.49820 | -3.10138 | 35915 ft | 440 kts | 6° |
| 2026-05-07 15:42 | 41.55813 | -3.08773 | 35913 ft | 435 kts | 6° |
| 2026-05-07 15:43 | 41.61736 | -3.07434 | 35911 ft | 434 kts | 6° |
| 2026-05-07 15:43 | 41.67692 | -3.06081 | 35911 ft | 434 kts | 6° |
| 2026-05-07 15:44 | 41.73665 | -3.04718 | 35924 ft | 436 kts | 7° |
| 2026-05-07 15:44 | 41.79662 | -3.03344 | 35912 ft | 437 kts | 7° |
| 2026-05-07 15:45 | 41.85643 | -3.01964 | 35910 ft | 438 kts | 7° |
| 2026-05-07 15:45 | 41.91668 | -3.00576 | 35914 ft | 438 kts | 7° |
| 2026-05-07 15:46 | 42.00692 | -2.98493 | 35907 ft | 439 kts | 7° |
| 2026-05-07 15:47 | 42.06686 | -2.97099 | 35902 ft | 439 kts | 7° |
| 2026-05-07 15:47 | 42.12723 | -2.95697 | 35907 ft | 439 kts | 7° |
| 2026-05-07 15:48 | 42.18753 | -2.94290 | 35900 ft | 439 kts | 7° |
| 2026-05-07 15:48 | 42.24743 | -2.92890 | 35888 ft | 439 kts | 7° |
| 2026-05-07 15:49 | 42.30784 | -2.91476 | 35901 ft | 440 kts | 7° |
| 2026-05-07 15:49 | 42.36791 | -2.90069 | 35892 ft | 440 kts | 7° |
| 2026-05-07 15:50 | 42.42795 | -2.88381 | 35889 ft | 443 kts | 17° |
| 2026-05-07 15:50 | 42.48251 | -2.84466 | 35885 ft | 447 kts | 37° |
| 2026-05-07 15:51 | 42.52941 | -2.78907 | 35887 ft | 448 kts | 41° |
| 2026-05-07 15:51 | 42.57580 | -2.73327 | 35885 ft | 448 kts | 40° |
| 2026-05-07 15:52 | 42.62238 | -2.67697 | 35886 ft | 449 kts | 41° |
| 2026-05-07 15:52 | 42.66900 | -2.62049 | 35868 ft | 449 kts | 41° |
| 2026-05-07 15:53 | 42.71570 | -2.56388 | 35873 ft | 450 kts | 41° |
| 2026-05-07 15:53 | 42.76217 | -2.50744 | 35888 ft | 450 kts | 41° |
| 2026-05-07 15:54 | 42.80889 | -2.45061 | 35878 ft | 450 kts | 41° |
| 2026-05-07 15:54 | 42.85554 | -2.39364 | 35887 ft | 450 kts | 41° |
| 2026-05-07 15:55 | 42.90207 | -2.33654 | 35888 ft | 450 kts | 41° |
| 2026-05-07 15:55 | 42.94087 | -2.28897 | 35886 ft | 450 kts | 41° |
| 2026-05-07 15:56 | 42.99500 | -2.22243 | 35891 ft | 450 kts | 41° |
| 2026-05-07 15:56 | 43.03381 | -2.17466 | 35907 ft | 450 kts | 41° |
| 2026-05-07 15:57 | 43.08040 | -2.11704 | 35892 ft | 451 kts | 42° |
| 2026-05-07 15:57 | 43.12667 | -2.05977 | 35893 ft | 451 kts | 41° |
| 2026-05-07 15:58 | 43.17332 | -2.00210 | 35893 ft | 451 kts | 42° |
| 2026-05-07 15:58 | 43.21955 | -1.94469 | 35892 ft | 451 kts | 42° |
| 2026-05-07 15:59 | 43.26616 | -1.88669 | 35883 ft | 451 kts | 42° |
| 2026-05-07 15:59 | 43.31368 | -1.83004 | 35896 ft | 451 kts | 34° |
| 2026-05-07 16:00 | 43.36738 | -1.78658 | 35900 ft | 450 kts | 28° |
| 2026-05-07 16:00 | 43.42092 | -1.74149 | 35911 ft | 451 kts | 32° |
| 2026-05-07 16:01 | 43.47278 | -1.69350 | 35911 ft | 451 kts | 34° |
| 2026-05-07 16:01 | 43.52494 | -1.64475 | 35918 ft | 452 kts | 33° |
| 2026-05-07 16:02 | 43.57717 | -1.59708 | 35918 ft | 452 kts | 33° |
| 2026-05-07 16:02 | 43.62974 | -1.54969 | 35911 ft | 450 kts | 32° |
| 2026-05-07 16:03 | 43.68225 | -1.50227 | 35903 ft | 450 kts | 33° |
| 2026-05-07 16:03 | 43.73470 | -1.45442 | 35897 ft | 451 kts | 33° |
| 2026-05-07 16:04 | 43.78681 | -1.40672 | 35903 ft | 451 kts | 33° |
| 2026-05-07 16:04 | 43.83916 | -1.35877 | 35914 ft | 451 kts | 33° |
| 2026-05-07 16:05 | 43.89164 | -1.31056 | 35897 ft | 452 kts | 33° |
| 2026-05-07 16:05 | 43.94407 | -1.26230 | 35905 ft | 452 kts | 33° |
| 2026-05-07 16:06 | 43.99620 | -1.21423 | 35904 ft | 452 kts | 33° |
| 2026-05-07 16:06 | 44.04858 | -1.16593 | 35922 ft | 452 kts | 33° |
| 2026-05-07 16:07 | 44.10099 | -1.11737 | 35894 ft | 452 kts | 33° |
| 2026-05-07 16:07 | 44.15346 | -1.06862 | 35901 ft | 453 kts | 33° |
| 2026-05-07 16:08 | 44.20589 | -1.01990 | 35907 ft | 453 kts | 33° |
| 2026-05-07 16:08 | 44.25805 | -0.97130 | 35902 ft | 453 kts | 33° |
| 2026-05-07 16:09 | 44.31050 | -0.92226 | 35913 ft | 453 kts | 33° |
| 2026-05-07 16:09 | 44.36296 | -0.87311 | 35926 ft | 453 kts | 33° |
| 2026-05-07 16:10 | 44.41805 | -0.83210 | 35920 ft | 451 kts | 17° |
| 2026-05-07 16:10 | 44.47820 | -0.80722 | 35927 ft | 450 kts | 14° |
| 2026-05-07 16:11 | 44.53836 | -0.78248 | 35930 ft | 450 kts | 14° |
| 2026-05-07 16:11 | 44.59828 | -0.75762 | 35935 ft | 450 kts | 14° |
| 2026-05-07 16:12 | 44.65850 | -0.73270 | 35932 ft | 450 kts | 14° |
| 2026-05-07 16:12 | 44.71843 | -0.70797 | 35942 ft | 450 kts | 14° |
| 2026-05-07 16:13 | 44.77831 | -0.68331 | 35931 ft | 450 kts | 14° |
| 2026-05-07 16:13 | 44.83853 | -0.65829 | 35931 ft | 450 kts | 14° |
| 2026-05-07 16:14 | 44.89872 | -0.63309 | 35937 ft | 450 kts | 14° |
| 2026-05-07 16:14 | 44.95865 | -0.60814 | 35941 ft | 450 kts | 14° |
| 2026-05-07 16:15 | 45.01838 | -0.58328 | 35944 ft | 450 kts | 14° |
| 2026-05-07 16:15 | 45.07820 | -0.55816 | 35959 ft | 450 kts | 14° |
| 2026-05-07 16:16 | 45.13835 | -0.53284 | 35941 ft | 450 kts | 14° |
| 2026-05-07 16:16 | 45.19825 | -0.50757 | 35955 ft | 451 kts | 14° |
| 2026-05-07 16:17 | 45.25831 | -0.48226 | 35951 ft | 451 kts | 14° |
| 2026-05-07 16:17 | 45.31825 | -0.45690 | 35951 ft | 451 kts | 14° |
| 2026-05-07 16:18 | 45.37842 | -0.43149 | 35947 ft | 450 kts | 14° |
| 2026-05-07 16:18 | 45.43829 | -0.40609 | 35950 ft | 450 kts | 14° |
| 2026-05-07 16:19 | 45.49846 | -0.38044 | 35946 ft | 450 kts | 14° |
| 2026-05-07 16:19 | 45.55825 | -0.35490 | 35942 ft | 450 kts | 14° |
| 2026-05-07 16:20 | 45.61920 | -0.33704 | 35950 ft | 444 kts | 358° |
| 2026-05-07 16:20 | 45.64988 | -0.33961 | 35949 ft | 439 kts | 347° |
| 2026-05-07 16:20 | 45.67938 | -0.35014 | 35946 ft | 433 kts | 336° |
| 2026-05-07 16:20 | 45.70656 | -0.36783 | 35957 ft | 427 kts | 325° |
| 2026-05-07 16:21 | 45.73053 | -0.39146 | 35953 ft | 421 kts | 317° |
| 2026-05-07 16:21 | 45.77751 | -0.44474 | 35971 ft | 435 kts | 317° |
| 2026-05-07 16:22 | 45.82527 | -0.49859 | 35961 ft | 437 kts | 317° |
| 2026-05-07 16:22 | 45.87284 | -0.55229 | 35967 ft | 437 kts | 317° |
| 2026-05-07 16:23 | 45.92066 | -0.60648 | 35965 ft | 437 kts | 317° |
| 2026-05-07 16:23 | 45.96836 | -0.66082 | 35966 ft | 437 kts | 317° |
| 2026-05-07 16:24 | 46.01578 | -0.71501 | 35976 ft | 436 kts | 317° |
| 2026-05-07 16:24 | 46.06336 | -0.76945 | 35973 ft | 436 kts | 317° |
| 2026-05-07 16:25 | 46.11061 | -0.82365 | 35975 ft | 436 kts | 317° |
| 2026-05-07 16:25 | 46.15824 | -0.87825 | 35966 ft | 437 kts | 317° |
| 2026-05-07 16:26 | 46.20575 | -0.93297 | 35973 ft | 437 kts | 317° |
| 2026-05-07 16:26 | 46.25333 | -0.98783 | 35972 ft | 437 kts | 317° |
| 2026-05-07 16:27 | 46.30053 | -1.04248 | 35973 ft | 437 kts | 317° |
| 2026-05-07 16:27 | 46.34798 | -1.09749 | 35971 ft | 437 kts | 317° |
| 2026-05-07 16:28 | 46.39539 | -1.15258 | 35979 ft | 437 kts | 317° |
| 2026-05-07 16:28 | 46.44245 | -1.20743 | 35987 ft | 437 kts | 317° |
| 2026-05-07 16:29 | 46.48982 | -1.26280 | 35978 ft | 437 kts | 317° |
| 2026-05-07 16:29 | 46.53726 | -1.31830 | 35974 ft | 437 kts | 317° |
| 2026-05-07 16:30 | 46.58443 | -1.37334 | 35977 ft | 438 kts | 320° |
| 2026-05-07 16:30 | 46.61147 | -1.39471 | 35973 ft | 446 kts | 336° |
| 2026-05-07 16:30 | 46.64142 | -1.40724 | 35974 ft | 449 kts | 342° |
| 2026-05-07 16:31 | 46.70215 | -1.42907 | 35967 ft | 452 kts | 350° |
| 2026-05-07 16:31 | 46.73368 | -1.42885 | 35967 ft | 457 kts | 5° |
| 2026-05-07 16:31 | 46.76519 | -1.42244 | 35964 ft | 457 kts | 6° |
| 2026-05-07 16:32 | 46.82798 | -1.40913 | 35964 ft | 458 kts | 6° |
| 2026-05-07 16:32 | 46.89110 | -1.39560 | 35963 ft | 458 kts | 6° |
| 2026-05-07 16:33 | 46.95426 | -1.38208 | 35965 ft | 459 kts | 6° |
| 2026-05-07 16:33 | 47.01714 | -1.36868 | 35972 ft | 458 kts | 6° |
| 2026-05-07 16:34 | 47.08033 | -1.35535 | 35970 ft | 458 kts | 6° |
| 2026-05-07 16:34 | 47.14313 | -1.34195 | 35973 ft | 458 kts | 6° |
| 2026-05-07 16:35 | 47.20625 | -1.32828 | 35984 ft | 456 kts | 6° |
| 2026-05-07 16:35 | 47.23721 | -1.32166 | 35970 ft | 442 kts | 5° |
| 2026-05-07 16:35 | 47.26721 | -1.32142 | 35977 ft | 418 kts | 345° |
| 2026-05-07 16:35 | 47.29311 | -1.33607 | 35971 ft | 393 kts | 322° |
| 2026-05-07 16:36 | 47.31319 | -1.36144 | 35970 ft | 369 kts | 302° |
| 2026-05-07 16:36 | 47.32396 | -1.39402 | 35973 ft | 341 kts | 276° |
| 2026-05-07 16:36 | 47.32338 | -1.42752 | 35972 ft | 323 kts | 249° |
| 2026-05-07 16:36 | 47.31217 | -1.45548 | 35974 ft | 317 kts | 223° |
| 2026-05-07 16:37 | 47.31205 | -1.45566 | 35974 ft | 317 kts | 223° |